createdAt,value
2019-01-23T00:01:31.505Z,15.57
2019-01-23T00:06:36.060Z,17.80
2019-01-23T00:11:40.645Z,14.90
2019-01-23T00:16:45.227Z,15.40
2019-01-23T00:21:49.838Z,19.48
2019-01-23T00:26:54.435Z,12.87
2019-01-23T00:31:59.929Z,15.63
2019-01-23T00:37:04.661Z,15.30
2019-01-23T00:42:09.274Z,13.93
2019-01-23T00:47:13.794Z,10.23
2019-01-23T00:52:18.314Z,10.80
2019-01-23T00:57:22.927Z,11.53
2019-01-23T01:02:27.526Z,11.60
2019-01-23T01:07:32.158Z,9.77
2019-01-23T01:12:36.767Z,9.50
2019-01-23T01:17:41.354Z,10.80
2019-01-23T01:22:45.928Z,9.60
2019-01-23T01:27:50.469Z,9.73
2019-01-23T01:32:55.053Z,8.57
2019-01-23T01:37:59.625Z,7.70
2019-01-23T01:43:04.205Z,7.70
2019-01-23T01:48:08.819Z,8.13
2019-01-23T01:53:13.398Z,8.13
2019-01-23T01:58:17.958Z,9.43
2019-01-23T02:03:22.566Z,8.70
2019-01-23T02:08:27.137Z,9.30
2019-01-23T02:13:31.676Z,9.80
2019-01-23T02:18:36.185Z,10.43
2019-01-23T02:23:40.754Z,9.57
2019-01-23T02:28:45.264Z,9.57
2019-01-23T02:33:49.870Z,10.83
2019-01-23T02:38:54.376Z,10.63
2019-01-23T02:43:58.993Z,8.93
2019-01-23T02:49:03.586Z,10.27
2019-01-23T02:54:08.177Z,11.57
2019-01-23T02:59:17.315Z,10.67
2019-01-23T03:04:18.935Z,11.87
2019-01-23T03:09:23.491Z,10.77
2019-01-23T03:14:28.110Z,10.60
2019-01-23T03:19:32.807Z,10.13
2019-01-23T03:24:37.365Z,8.30
2019-01-23T03:29:41.954Z,9.70
2019-01-23T03:34:46.582Z,8.97
2019-01-23T03:39:51.294Z,9.13
2019-01-23T03:44:55.911Z,9.33
2019-01-23T03:50:00.487Z,8.60
2019-01-23T03:55:06.183Z,10.27
2019-01-23T04:00:13.588Z,8.87
2019-01-23T04:05:18.182Z,8.87
2019-01-23T04:10:22.736Z,8.93
2019-01-23T04:15:27.305Z,9.07
2019-01-23T04:20:31.866Z,9.73
2019-01-23T04:25:36.447Z,9.93
2019-01-23T04:30:41.061Z,8.70
2019-01-23T04:35:45.619Z,9.60
2019-01-23T04:40:50.140Z,9.70
2019-01-23T04:45:54.706Z,10.07
2019-01-23T04:51:21.046Z,8.27
2019-01-23T04:56:25.624Z,8.93
2019-01-23T05:01:30.292Z,10.07
2019-01-23T05:06:34.803Z,8.87
2019-01-23T05:11:39.392Z,9.70
2019-01-23T05:16:43.899Z,11.50
2019-01-23T05:21:48.477Z,11.00
2019-01-23T05:26:53.060Z,10.67
2019-01-23T05:31:57.702Z,10.33
2019-01-23T05:37:02.298Z,10.27
2019-01-23T05:42:06.880Z,9.50
2019-01-23T05:47:12.706Z,10.43
2019-01-23T05:52:17.318Z,12.37
2019-01-23T05:57:21.888Z,10.70
2019-01-23T06:02:26.414Z,10.67
2019-01-23T06:07:31.027Z,11.60
2019-01-23T06:12:35.599Z,12.70
2019-01-23T06:17:40.455Z,10.77
2019-01-23T06:22:45.013Z,11.93
2019-01-23T06:27:49.510Z,12.17
2019-01-23T06:32:55.247Z,12.90
2019-01-23T06:37:59.862Z,13.43
2019-01-23T06:43:04.404Z,14.83
2019-01-23T06:48:08.999Z,14.17
2019-01-23T06:53:14.090Z,14.13
2019-01-23T06:58:18.878Z,13.70
2019-01-23T07:03:23.479Z,14.77
2019-01-23T07:08:28.046Z,14.83
2019-01-23T07:13:32.663Z,12.53
2019-01-23T07:18:37.231Z,11.93
2019-01-23T07:23:41.845Z,11.97
2019-01-23T07:28:49.283Z,14.00
2019-01-23T07:33:52.648Z,15.83
2019-01-23T07:38:57.374Z,15.03
2019-01-23T07:44:01.955Z,13.83
2019-01-23T07:49:06.572Z,22.02
2019-01-23T07:54:11.168Z,24.52
2019-01-23T07:59:15.768Z,17.67
2019-01-23T08:04:20.357Z,20.40
2019-01-23T08:09:24.952Z,13.23
2019-01-23T08:14:29.552Z,13.37
2019-01-23T08:19:34.188Z,19.73
2019-01-23T08:24:38.870Z,22.52
2019-01-23T08:29:43.478Z,16.90
2019-01-23T08:34:48.127Z,22.33
2019-01-23T08:39:52.726Z,22.07
2019-01-23T08:44:57.305Z,15.40
2019-01-23T08:50:01.960Z,14.77
2019-01-23T08:55:06.701Z,14.57
2019-01-23T09:00:11.339Z,13.20
2019-01-23T09:05:16.052Z,15.30
2019-01-23T09:10:21.818Z,14.60
2019-01-23T09:15:26.389Z,21.33
2019-01-23T09:20:30.943Z,12.10
2019-01-23T09:25:35.536Z,13.50
2019-01-23T09:31:24.043Z,12.20
2019-01-23T09:36:57.752Z,11.33
2019-01-23T09:42:27.785Z,12.20
2019-01-23T09:48:00.614Z,12.23
2019-01-23T09:53:38.607Z,13.00
2019-01-23T09:58:43.215Z,12.70
2019-01-23T10:03:47.808Z,11.30
2019-01-23T10:08:52.525Z,12.17
2019-01-23T10:13:57.094Z,11.73
2019-01-23T10:19:01.688Z,11.03
2019-01-23T10:24:06.259Z,8.50
2019-01-23T10:29:10.781Z,11.97
2019-01-23T10:34:15.385Z,12.50
2019-01-23T10:39:19.980Z,11.50
2019-01-23T10:44:24.613Z,11.77
2019-01-23T10:49:29.214Z,11.07
2019-01-23T10:54:33.790Z,11.53
2019-01-23T10:59:38.395Z,13.50
2019-01-23T11:04:42.980Z,12.13
2019-01-23T11:09:47.583Z,12.03
2019-01-23T11:14:52.215Z,12.27
2019-01-23T11:19:56.790Z,11.63
2019-01-23T11:25:01.376Z,11.80
2019-01-23T11:30:08.661Z,12.93
2019-01-23T11:35:13.464Z,11.47
2019-01-23T11:40:23.703Z,10.93
2019-01-23T11:45:28.518Z,11.20
2019-01-23T11:50:33.136Z,13.40
2019-01-23T11:55:37.760Z,11.30
2019-01-23T12:00:42.580Z,13.10
2019-01-23T12:05:47.206Z,11.53
2019-01-23T12:10:51.802Z,9.47
2019-01-23T12:15:56.431Z,12.80
2019-01-23T12:21:01.113Z,14.27
2019-01-23T12:26:05.906Z,12.33
2019-01-23T12:31:10.512Z,11.40
2019-01-23T12:36:15.179Z,10.47
2019-01-23T12:41:19.828Z,10.13
2019-01-23T12:46:24.461Z,10.13
2019-01-23T12:51:29.047Z,12.33
2019-01-23T12:56:34.447Z,12.47
2019-01-23T13:01:42.095Z,12.17
2019-01-23T13:06:45.390Z,10.30
2019-01-23T13:11:49.990Z,12.30
2019-01-23T13:16:54.610Z,11.60
2019-01-23T13:21:59.195Z,10.63
2019-01-23T13:27:03.918Z,9.20
2019-01-23T13:32:08.561Z,10.37
2019-01-23T13:37:13.195Z,10.63
2019-01-23T13:42:17.809Z,10.40
2019-01-23T13:47:22.368Z,9.07
2019-01-23T13:52:27.045Z,10.77
2019-01-23T13:57:31.686Z,9.73
2019-01-23T14:02:36.197Z,11.30
2019-01-23T14:07:40.849Z,9.83
2019-01-23T14:12:45.474Z,10.97
2019-01-23T14:17:50.093Z,11.27
2019-01-23T14:22:54.720Z,10.40
2019-01-23T14:27:59.300Z,10.80
2019-01-23T14:33:04.122Z,11.67
2019-01-23T14:38:08.747Z,10.87
2019-01-23T14:43:13.395Z,10.93
2019-01-23T14:48:17.969Z,8.87
2019-01-23T14:53:22.594Z,11.27
2019-01-23T14:58:27.233Z,8.53
2019-01-23T15:03:31.757Z,8.63
2019-01-23T15:08:36.377Z,9.53
2019-01-23T15:13:40.965Z,10.20
2019-01-23T15:18:45.585Z,9.77
2019-01-23T15:23:50.160Z,10.00
2019-01-23T15:28:54.760Z,10.33
2019-01-23T15:33:59.387Z,10.43
2019-01-23T15:39:05.371Z,9.30
2019-01-23T15:44:09.986Z,9.60
2019-01-23T15:49:14.582Z,9.60
2019-01-23T15:54:19.151Z,12.13
2019-01-23T15:59:23.750Z,12.37
2019-01-23T16:04:28.282Z,13.00
2019-01-23T16:09:32.896Z,9.33
2019-01-23T16:14:38.128Z,11.38
2019-01-23T16:19:42.727Z,9.90
2019-01-23T16:24:47.369Z,9.57
2019-01-23T16:29:52.007Z,10.20
2019-01-23T16:34:56.623Z,10.53
2019-01-23T16:40:01.265Z,14.18
2019-01-23T16:45:07.334Z,10.50
2019-01-23T16:50:17.348Z,10.53
2019-01-23T16:55:21.950Z,13.50
2019-01-23T17:00:27.109Z,13.25
2019-01-23T17:05:32.799Z,11.20
2019-01-23T17:10:37.524Z,11.43
2019-01-23T17:15:42.173Z,13.10
2019-01-23T17:20:48.994Z,11.97
2019-01-23T17:25:53.634Z,15.33
2019-01-23T17:30:58.153Z,11.90
2019-01-23T17:36:02.793Z,13.57
2019-01-23T17:41:07.503Z,12.73
2019-01-23T17:46:12.053Z,15.17
2019-01-23T17:51:16.647Z,16.47
2019-01-23T17:56:21.266Z,16.60
2019-01-23T18:01:25.883Z,17.70
2019-01-23T18:06:30.534Z,17.87
2019-01-23T18:11:35.122Z,21.05
2019-01-23T18:16:39.808Z,18.00
2019-01-23T18:21:44.585Z,22.77
2019-01-23T18:26:49.314Z,25.20
2019-01-23T18:32:03.298Z,19.27
2019-01-23T18:37:39.751Z,15.70
2019-01-23T18:43:40.190Z,18.07
2019-01-23T18:49:20.735Z,19.65
2019-01-23T18:54:25.357Z,16.10
2019-01-23T18:59:29.993Z,16.20
2019-01-23T19:04:34.687Z,15.83
2019-01-23T19:09:39.358Z,16.70
2019-01-23T19:14:44.115Z,16.23
2019-01-23T19:19:48.733Z,15.57
2019-01-23T19:24:53.795Z,15.73
2019-01-23T19:29:58.419Z,16.10
2019-01-23T19:35:03.011Z,14.93
2019-01-23T19:40:08.543Z,17.30
2019-01-23T19:45:16.638Z,15.70
2019-01-23T19:50:21.244Z,22.17
2019-01-23T19:55:25.959Z,21.75
2019-01-23T20:00:30.666Z,16.57
2019-01-23T20:05:35.325Z,21.10
2019-01-23T20:10:40.052Z,21.57
2019-01-23T20:15:44.691Z,21.02
2019-01-23T20:20:49.312Z,20.62
2019-01-23T20:25:53.931Z,17.97
2019-01-23T20:30:58.566Z,22.00
2019-01-23T20:36:03.200Z,19.50
2019-01-23T20:41:07.952Z,17.97
2019-01-23T20:46:12.656Z,16.47
2019-01-23T20:51:17.315Z,17.17
2019-01-23T20:56:21.979Z,14.93
2019-01-23T21:01:26.587Z,14.60
2019-01-23T21:06:31.230Z,15.57
2019-01-23T21:11:35.891Z,15.80
2019-01-23T21:16:40.481Z,17.37
2019-01-23T21:21:45.028Z,17.47
2019-01-23T21:26:49.660Z,18.30
2019-01-23T21:31:54.306Z,17.80
2019-01-23T21:36:59.065Z,19.33
2019-01-23T21:42:03.765Z,18.10
2019-01-23T21:47:08.402Z,19.43
2019-01-23T21:52:13.008Z,21.00
2019-01-23T21:57:17.661Z,18.97
2019-01-23T22:02:22.287Z,20.97
2019-01-23T22:07:27.126Z,29.27
2019-01-23T22:12:31.968Z,21.40
2019-01-23T22:17:36.593Z,22.10
2019-01-23T22:22:41.305Z,23.30
2019-01-23T22:27:45.892Z,20.67
2019-01-23T22:32:50.724Z,22.23
2019-01-23T22:37:55.266Z,27.60
2019-01-23T22:43:00.003Z,23.53
2019-01-23T22:48:05.251Z,21.40
2019-01-23T22:53:09.935Z,21.00
2019-01-23T22:58:14.578Z,22.17
2019-01-23T23:03:20.898Z,21.83
2019-01-23T23:08:25.532Z,21.67
2019-01-23T23:13:30.100Z,21.67
2019-01-23T23:18:34.687Z,22.00
2019-01-23T23:23:42.298Z,21.03
2019-01-23T23:28:47.134Z,20.47
2019-01-23T23:33:51.841Z,19.63
2019-01-23T23:38:56.492Z,19.50
2019-01-23T23:44:01.041Z,19.10
2019-01-23T23:49:05.643Z,19.70
2019-01-23T23:54:10.187Z,18.03
2019-01-23T23:59:14.715Z,19.47
